sensor_id;sensor_type;location;lat;lon;timestamp;pressure;altitude;pressure_sealevel;temperature;humidity
31483;BME280;18103;52.246;8.052;2022-12-29T00:02:16;99065.72;;;9.28;89.63
31483;BME280;18103;52.246;8.052;2022-12-29T00:04:41;99044.38;;;9.31;89.47
31483;BME280;18103;52.246;8.052;2022-12-29T00:07:08;99035.78;;;9.29;89.70
31483;BME280;18103;52.246;8.052;2022-12-29T00:09:34;99033.84;;;9.31;89.41
31483;BME280;18103;52.246;8.052;2022-12-29T00:12:00;99042.03;;;9.28;89.42
31483;BME280;18103;52.246;8.052;2022-12-29T00:14:26;99037.69;;;9.36;89.09
31483;BME280;18103;52.246;8.052;2022-12-29T00:17:10;99042.81;;;9.38;89.06
31483;BME280;18103;52.246;8.052;2022-12-29T00:19:36;99028.69;;;9.39;89.10
31483;BME280;18103;52.246;8.052;2022-12-29T00:22:20;99029.41;;;9.31;89.58
31483;BME280;18103;52.246;8.052;2022-12-29T00:25:07;99028.13;;;9.35;89.66
31483;BME280;18103;52.246;8.052;2022-12-29T00:27:51;99035.47;;;9.41;89.25
31483;BME280;18103;52.246;8.052;2022-12-29T00:30:36;99036.59;;;9.39;89.46
31483;BME280;18103;52.246;8.052;2022-12-29T00:33:22;99036.00;;;9.45;89.05
31483;BME280;18103;52.246;8.052;2022-12-29T00:36:24;99035.31;;;9.43;89.50
31483;BME280;18103;52.246;8.052;2022-12-29T00:39:02;99028.91;;;9.46;89.38
31483;BME280;18103;52.246;8.052;2022-12-29T00:41:47;99024.03;;;9.51;89.03
31483;BME280;18103;52.246;8.052;2022-12-29T00:44:31;99027.94;;;9.47;89.37
31483;BME280;18103;52.246;8.052;2022-12-29T00:46:57;99016.84;;;9.53;89.16
31483;BME280;18103;52.246;8.052;2022-12-29T00:49:25;99030.97;;;9.52;89.17
31483;BME280;18103;52.246;8.052;2022-12-29T00:54:23;99015.69;;;9.55;88.97
31483;BME280;18103;52.246;8.052;2022-12-29T00:56:50;99006.28;;;9.53;88.92
31483;BME280;18103;52.246;8.052;2022-12-29T00:59:16;98980.72;;;9.63;88.84
31483;BME280;18103;52.246;8.052;2022-12-29T01:01:42;98983.97;;;9.57;89.05
31483;BME280;18103;52.246;8.052;2022-12-29T01:04:08;98989.44;;;9.64;88.78
31483;BME280;18103;52.246;8.052;2022-12-29T01:06:35;98978.22;;;9.62;88.77
31483;BME280;18103;52.246;8.052;2022-12-29T01:09:01;98979.50;;;9.57;88.94
31483;BME280;18103;52.246;8.052;2022-12-29T01:11:45;98990.94;;;9.66;88.73
31483;BME280;18103;52.246;8.052;2022-12-29T01:14:10;98983.19;;;9.65;88.43
31483;BME280;18103;52.246;8.052;2022-12-29T01:16:36;98994.28;;;9.68;88.39
31483;BME280;18103;52.246;8.052;2022-12-29T01:19:02;98980.56;;;9.65;88.51
31483;BME280;18103;52.246;8.052;2022-12-29T01:21:27;98985.09;;;9.72;88.16
31483;BME280;18103;52.246;8.052;2022-12-29T01:23:53;98977.19;;;9.72;88.34
31483;BME280;18103;52.246;8.052;2022-12-29T01:26:18;98976.34;;;9.72;88.43
31483;BME280;18103;52.246;8.052;2022-12-29T01:28:44;98972.75;;;9.73;87.97
31483;BME280;18103;52.246;8.052;2022-12-29T01:31:11;98975.00;;;9.68;88.54
31483;BME280;18103;52.246;8.052;2022-12-29T01:33:38;98978.03;;;9.73;88.39
31483;BME280;18103;52.246;8.052;2022-12-29T01:36:05;98987.44;;;9.75;88.64
31483;BME280;18103;52.246;8.052;2022-12-29T01:38:32;98980.91;;;9.80;88.45
31483;BME280;18103;52.246;8.052;2022-12-29T01:40:57;98974.94;;;9.77;88.93
31483;BME280;18103;52.246;8.052;2022-12-29T01:43:45;98971.47;;;9.77;89.46
31483;BME280;18103;52.246;8.052;2022-12-29T01:46:18;98960.13;;;9.76;90.12
31483;BME280;18103;52.246;8.052;2022-12-29T01:48:47;98963.88;;;9.74;90.22
31483;BME280;18103;52.246;8.052;2022-12-29T01:51:14;98961.97;;;9.66;90.38
31483;BME280;18103;52.246;8.052;2022-12-29T01:53:40;98954.91;;;9.67;90.44
31483;BME280;18103;52.246;8.052;2022-12-29T01:56:07;98949.34;;;9.70;90.64
31483;BME280;18103;52.246;8.052;2022-12-29T01:58:39;98957.09;;;9.71;90.65
31483;BME280;18103;52.246;8.052;2022-12-29T02:01:07;98948.06;;;9.74;90.47
31483;BME280;18103;52.246;8.052;2022-12-29T02:03:34;98959.13;;;9.77;90.62
31483;BME280;18103;52.246;8.052;2022-12-29T02:06:23;98957.47;;;9.76;90.29
31483;BME280;18103;52.246;8.052;2022-12-29T02:08:53;98958.28;;;9.77;90.10
31483;BME280;18103;52.246;8.052;2022-12-29T02:11:21;98943.38;;;9.86;90.10
31483;BME280;18103;52.246;8.052;2022-12-29T02:13:51;98949.03;;;9.73;90.84
31483;BME280;18103;52.246;8.052;2022-12-29T02:24:45;98935.03;;;9.72;91.33
31483;BME280;18103;52.246;8.052;2022-12-29T02:27:29;98942.66;;;9.75;91.41
31483;BME280;18103;52.246;8.052;2022-12-29T02:38:13;98928.41;;;9.86;90.84
31483;BME280;18103;52.246;8.052;2022-12-29T02:40:58;98921.34;;;9.87;90.74
31483;BME280;18103;52.246;8.052;2022-12-29T02:46:04;98909.81;;;9.88;90.70
31483;BME280;18103;52.246;8.052;2022-12-29T02:48:45;98897.00;;;9.93;90.59
31483;BME280;18103;52.246;8.052;2022-12-29T02:51:50;98921.03;;;9.90;90.62
31483;BME280;18103;52.246;8.052;2022-12-29T02:54:21;98900.47;;;9.93;90.33
31483;BME280;18103;52.246;8.052;2022-12-29T02:57:32;98900.16;;;9.97;90.30
31483;BME280;18103;52.246;8.052;2022-12-29T03:00:05;98895.19;;;9.93;90.16
31483;BME280;18103;52.246;8.052;2022-12-29T03:11:19;98903.19;;;10.02;89.57
31483;BME280;18103;52.246;8.052;2022-12-29T03:14:32;98888.84;;;10.04;89.46
31483;BME280;18103;52.246;8.052;2022-12-29T03:17:46;98889.00;;;10.03;89.34
31483;BME280;18103;52.246;8.052;2022-12-29T03:20:21;98872.53;;;10.01;89.32
31483;BME280;18103;52.246;8.052;2022-12-29T03:22:51;98872.94;;;10.14;88.62
31483;BME280;18103;52.246;8.052;2022-12-29T03:25:30;98865.97;;;10.05;88.96
31483;BME280;18103;52.246;8.052;2022-12-29T03:28:00;98872.75;;;10.07;88.57
31483;BME280;18103;52.246;8.052;2022-12-29T03:30:28;98866.19;;;10.12;88.42
31483;BME280;18103;52.246;8.052;2022-12-29T03:32:58;98867.00;;;10.12;88.17
31483;BME280;18103;52.246;8.052;2022-12-29T03:35:25;98866.91;;;10.22;87.20
31483;BME280;18103;52.246;8.052;2022-12-29T03:40:44;98857.31;;;10.21;87.15
31483;BME280;18103;52.246;8.052;2022-12-29T03:43:11;98865.50;;;10.09;87.75
31483;BME280;18103;52.246;8.052;2022-12-29T03:45:38;98860.06;;;10.11;87.51
31483;BME280;18103;52.246;8.052;2022-12-29T03:48:03;98874.59;;;10.15;87.27
31483;BME280;18103;52.246;8.052;2022-12-29T03:50:29;98858.66;;;10.25;86.71
31483;BME280;18103;52.246;8.052;2022-12-29T03:52:54;98855.63;;;10.12;87.22
31483;BME280;18103;52.246;8.052;2022-12-29T03:55:19;98855.88;;;10.26;86.39
31483;BME280;18103;52.246;8.052;2022-12-29T03:57:45;98858.50;;;10.26;86.47
31483;BME280;18103;52.246;8.052;2022-12-29T04:00:11;98862.28;;;10.24;86.59
31483;BME280;18103;52.246;8.052;2022-12-29T04:02:36;98855.88;;;10.26;86.25
31483;BME280;18103;52.246;8.052;2022-12-29T04:05:02;98848.66;;;10.28;85.71
31483;BME280;18103;52.246;8.052;2022-12-29T04:07:27;98848.56;;;10.38;85.35
31483;BME280;18103;52.246;8.052;2022-12-29T04:09:53;98853.84;;;10.38;84.92
31483;BME280;18103;52.246;8.052;2022-12-29T04:12:18;98836.97;;;10.31;85.72
31483;BME280;18103;52.246;8.052;2022-12-29T04:14:43;98847.88;;;10.36;84.97
31483;BME280;18103;52.246;8.052;2022-12-29T04:17:09;98849.38;;;10.39;84.54
31483;BME280;18103;52.246;8.052;2022-12-29T04:19:34;98846.59;;;10.40;84.52
31483;BME280;18103;52.246;8.052;2022-12-29T04:21:59;98836.19;;;10.39;84.54
31483;BME280;18103;52.246;8.052;2022-12-29T04:24:25;98847.63;;;10.30;85.09
31483;BME280;18103;52.246;8.052;2022-12-29T04:26:50;98850.06;;;10.41;84.40
31483;BME280;18103;52.246;8.052;2022-12-29T04:29:16;98834.91;;;10.43;84.29
31483;BME280;18103;52.246;8.052;2022-12-29T04:31:41;98846.75;;;10.39;84.02
31483;BME280;18103;52.246;8.052;2022-12-29T04:34:07;98845.81;;;10.48;83.72
31483;BME280;18103;52.246;8.052;2022-12-29T04:36:32;98839.09;;;10.54;83.50
31483;BME280;18103;52.246;8.052;2022-12-29T04:38:58;98833.06;;;10.43;83.75
31483;BME280;18103;52.246;8.052;2022-12-29T04:41:23;98824.75;;;10.56;82.92
31483;BME280;18103;52.246;8.052;2022-12-29T04:43:49;98843.38;;;10.55;83.04
31483;BME280;18103;52.246;8.052;2022-12-29T04:46:15;98830.69;;;10.58;82.96
31483;BME280;18103;52.246;8.052;2022-12-29T04:48:40;98830.69;;;10.58;82.75
31483;BME280;18103;52.246;8.052;2022-12-29T04:51:05;98844.19;;;10.55;83.28
31483;BME280;18103;52.246;8.052;2022-12-29T04:53:31;98837.69;;;10.41;83.87
31483;BME280;18103;52.246;8.052;2022-12-29T04:55:56;98847.59;;;10.48;83.64
31483;BME280;18103;52.246;8.052;2022-12-29T04:58:21;98846.50;;;10.58;82.66
31483;BME280;18103;52.246;8.052;2022-12-29T05:00:47;98850.88;;;10.41;84.51
31483;BME280;18103;52.246;8.052;2022-12-29T05:03:13;98836.88;;;10.41;83.73
31483;BME280;18103;52.246;8.052;2022-12-29T05:05:41;98827.00;;;10.43;83.73
31483;BME280;18103;52.246;8.052;2022-12-29T05:08:06;98833.31;;;10.32;84.76
31483;BME280;18103;52.246;8.052;2022-12-29T05:10:32;98839.88;;;10.28;85.17
31483;BME280;18103;52.246;8.052;2022-12-29T05:12:57;98841.50;;;10.21;86.00
31483;BME280;18103;52.246;8.052;2022-12-29T05:15:23;98853.19;;;10.18;86.19
31483;BME280;18103;52.246;8.052;2022-12-29T05:17:48;98861.94;;;10.19;86.24
31483;BME280;18103;52.246;8.052;2022-12-29T05:20:14;98849.66;;;10.09;87.23
31483;BME280;18103;52.246;8.052;2022-12-29T05:22:39;98838.91;;;10.03;87.89
31483;BME280;18103;52.246;8.052;2022-12-29T05:25:05;98840.50;;;9.96;88.00
31483;BME280;18103;52.246;8.052;2022-12-29T05:27:30;98856.31;;;9.96;87.83
31483;BME280;18103;52.246;8.052;2022-12-29T05:29:56;98849.19;;;9.88;88.33
31483;BME280;18103;52.246;8.052;2022-12-29T05:32:21;98869.22;;;9.81;88.62
31483;BME280;18103;52.246;8.052;2022-12-29T05:34:47;98867.19;;;9.74;88.73
31483;BME280;18103;52.246;8.052;2022-12-29T05:37:12;98861.53;;;9.69;89.32
31483;BME280;18103;52.246;8.052;2022-12-29T05:39:40;98876.31;;;9.62;89.44
31483;BME280;18103;52.246;8.052;2022-12-29T05:42:05;98872.31;;;9.58;89.71
31483;BME280;18103;52.246;8.052;2022-12-29T05:44:31;98861.78;;;9.58;89.56
31483;BME280;18103;52.246;8.052;2022-12-29T05:46:56;98876.06;;;9.55;89.58
31483;BME280;18103;52.246;8.052;2022-12-29T05:49:21;98866.69;;;9.53;89.99
31483;BME280;18103;52.246;8.052;2022-12-29T05:51:47;98878.34;;;9.50;90.02
31483;BME280;18103;52.246;8.052;2022-12-29T05:54:13;98890.00;;;9.48;89.68
31483;BME280;18103;52.246;8.052;2022-12-29T05:56:38;98910.38;;;9.46;90.09
31483;BME280;18103;52.246;8.052;2022-12-29T05:59:04;98911.22;;;9.46;90.53
31483;BME280;18103;52.246;8.052;2022-12-29T06:01:29;98922.13;;;9.33;90.51
31483;BME280;18103;52.246;8.052;2022-12-29T06:03:55;98914.66;;;9.29;91.04
31483;BME280;18103;52.246;8.052;2022-12-29T06:06:20;98896.22;;;9.29;90.94
31483;BME280;18103;52.246;8.052;2022-12-29T06:08:46;98904.97;;;9.29;90.65
31483;BME280;18103;52.246;8.052;2022-12-29T06:11:11;98892.22;;;9.24;91.14
31483;BME280;18103;52.246;8.052;2022-12-29T06:13:37;98897.94;;;9.20;90.82
31483;BME280;18103;52.246;8.052;2022-12-29T06:16:05;98903.22;;;9.20;90.95
31483;BME280;18103;52.246;8.052;2022-12-29T06:18:31;98877.03;;;9.18;90.94
31483;BME280;18103;52.246;8.052;2022-12-29T06:21:03;98892.69;;;9.20;90.74
31483;BME280;18103;52.246;8.052;2022-12-29T06:23:29;98884.78;;;9.20;90.66
31483;BME280;18103;52.246;8.052;2022-12-29T06:25:55;98881.34;;;9.19;90.67
31483;BME280;18103;52.246;8.052;2022-12-29T06:28:21;98885.47;;;9.22;90.54
31483;BME280;18103;52.246;8.052;2022-12-29T06:30:46;98880.13;;;9.14;90.73
31483;BME280;18103;52.246;8.052;2022-12-29T06:33:13;98895.66;;;9.07;90.82
31483;BME280;18103;52.246;8.052;2022-12-29T06:35:38;98904.84;;;9.03;90.54
31483;BME280;18103;52.246;8.052;2022-12-29T06:38:04;98897.47;;;9.06;90.01
31483;BME280;18103;52.246;8.052;2022-12-29T06:40:29;98905.81;;;9.02;90.31
31483;BME280;18103;52.246;8.052;2022-12-29T06:42:55;98918.03;;;8.93;90.02
31483;BME280;18103;52.246;8.052;2022-12-29T06:45:21;98916.22;;;8.94;90.27
31483;BME280;18103;52.246;8.052;2022-12-29T06:47:46;98921.19;;;8.97;90.04
31483;BME280;18103;52.246;8.052;2022-12-29T06:50:15;98918.03;;;8.93;89.90
31483;BME280;18103;52.246;8.052;2022-12-29T06:52:40;98910.66;;;8.97;89.55
31483;BME280;18103;52.246;8.052;2022-12-29T06:55:06;98925.13;;;8.93;89.68
31483;BME280;18103;52.246;8.052;2022-12-29T06:57:35;98928.25;;;8.96;89.64
31483;BME280;18103;52.246;8.052;2022-12-29T07:00:01;98914.00;;;8.99;89.18
31483;BME280;18103;52.246;8.052;2022-12-29T07:02:27;98923.09;;;9.04;89.29
31483;BME280;18103;52.246;8.052;2022-12-29T07:04:53;98930.91;;;8.96;89.52
31483;BME280;18103;52.246;8.052;2022-12-29T07:07:19;98935.88;;;8.99;89.46
31483;BME280;18103;52.246;8.052;2022-12-29T07:09:46;98943.63;;;9.01;88.56
31483;BME280;18103;52.246;8.052;2022-12-29T07:12:11;98946.25;;;9.01;88.59
31483;BME280;18103;52.246;8.052;2022-12-29T07:14:37;98946.53;;;8.98;89.08
31483;BME280;18103;52.246;8.052;2022-12-29T07:17:02;98964.16;;;8.97;88.42
31483;BME280;18103;52.246;8.052;2022-12-29T07:19:30;98956.09;;;8.99;88.26
31483;BME280;18103;52.246;8.052;2022-12-29T07:21:56;98971.63;;;8.92;88.07
31483;BME280;18103;52.246;8.052;2022-12-29T07:24:21;98963.75;;;8.92;87.95
31483;BME280;18103;52.246;8.052;2022-12-29T07:26:47;98956.97;;;8.89;88.16
31483;BME280;18103;52.246;8.052;2022-12-29T07:29:12;98962.22;;;8.89;87.20
31483;BME280;18103;52.246;8.052;2022-12-29T07:31:37;98960.44;;;8.90;87.43
31483;BME280;18103;52.246;8.052;2022-12-29T07:34:03;98957.41;;;8.85;87.55
31483;BME280;18103;52.246;8.052;2022-12-29T07:36:28;98964.88;;;8.80;87.57
31483;BME280;18103;52.246;8.052;2022-12-29T07:38:53;98974.00;;;8.85;87.10
31483;BME280;18103;52.246;8.052;2022-12-29T07:41:19;98979.16;;;8.77;87.44
31483;BME280;18103;52.246;8.052;2022-12-29T07:43:47;98976.66;;;8.76;87.18
31483;BME280;18103;52.246;8.052;2022-12-29T07:46:13;98983.59;;;8.77;87.25
31483;BME280;18103;52.246;8.052;2022-12-29T07:48:39;98979.72;;;8.71;87.38
31483;BME280;18103;52.246;8.052;2022-12-29T07:51:04;98989.59;;;8.69;87.04
31483;BME280;18103;52.246;8.052;2022-12-29T07:53:30;98988.84;;;8.77;85.77
31483;BME280;18103;52.246;8.052;2022-12-29T07:55:55;98987.03;;;8.77;86.23
31483;BME280;18103;52.246;8.052;2022-12-29T07:58:21;98986.22;;;8.77;85.81
31483;BME280;18103;52.246;8.052;2022-12-29T08:00:46;98997.03;;;8.73;86.20
31483;BME280;18103;52.246;8.052;2022-12-29T08:03:11;98998.97;;;8.71;86.10
31483;BME280;18103;52.246;8.052;2022-12-29T08:05:37;99000.94;;;8.69;85.85
31483;BME280;18103;52.246;8.052;2022-12-29T08:08:02;99007.44;;;8.65;86.25
31483;BME280;18103;52.246;8.052;2022-12-29T08:10:28;98993.03;;;8.69;85.90
31483;BME280;18103;52.246;8.052;2022-12-29T08:12:53;98999.97;;;8.70;85.57
31483;BME280;18103;52.246;8.052;2022-12-29T08:15:19;99010.47;;;8.70;85.39
31483;BME280;18103;52.246;8.052;2022-12-29T08:17:44;99006.44;;;8.76;85.54
31483;BME280;18103;52.246;8.052;2022-12-29T08:20:11;99011.56;;;8.78;85.52
31483;BME280;18103;52.246;8.052;2022-12-29T08:22:36;99013.25;;;8.79;84.92
31483;BME280;18103;52.246;8.052;2022-12-29T08:25:02;99016.13;;;8.76;85.68
31483;BME280;18103;52.246;8.052;2022-12-29T08:27:28;99021.13;;;8.79;85.74
31483;BME280;18103;52.246;8.052;2022-12-29T08:29:53;99015.56;;;8.92;84.72
31483;BME280;18103;52.246;8.052;2022-12-29T08:32:19;99016.69;;;8.79;85.64
31483;BME280;18103;52.246;8.052;2022-12-29T08:34:44;99027.84;;;8.91;84.56
31483;BME280;18103;52.246;8.052;2022-12-29T08:37:10;99029.38;;;8.94;84.47
31483;BME280;18103;52.246;8.052;2022-12-29T08:39:35;99025.94;;;8.93;84.64
31483;BME280;18103;52.246;8.052;2022-12-29T08:42:01;99030.50;;;8.91;85.26
31483;BME280;18103;52.246;8.052;2022-12-29T08:44:26;99030.34;;;9.02;84.53
31483;BME280;18103;52.246;8.052;2022-12-29T08:46:52;99033.66;;;9.04;84.21
31483;BME280;18103;52.246;8.052;2022-12-29T08:49:17;99032.84;;;9.04;84.06
31483;BME280;18103;52.246;8.052;2022-12-29T08:51:42;99016.31;;;9.12;84.41
31483;BME280;18103;52.246;8.052;2022-12-29T08:54:08;99026.53;;;9.15;83.92
31483;BME280;18103;52.246;8.052;2022-12-29T08:56:36;99025.00;;;9.22;83.66
31483;BME280;18103;52.246;8.052;2022-12-29T08:59:02;99021.94;;;9.27;83.54
31483;BME280;18103;52.246;8.052;2022-12-29T09:01:28;99024.03;;;9.23;83.68
31483;BME280;18103;52.246;8.052;2022-12-29T09:03:54;99025.44;;;9.17;83.88
31483;BME280;18103;52.246;8.052;2022-12-29T09:06:20;99017.38;;;9.19;83.51
31483;BME280;18103;52.246;8.052;2022-12-29T09:08:46;99018.22;;;9.19;83.73
31483;BME280;18103;52.246;8.052;2022-12-29T09:11:18;99016.41;;;9.20;83.46
31483;BME280;18103;52.246;8.052;2022-12-29T09:13:44;99023.50;;;9.19;83.28
31483;BME280;18103;52.246;8.052;2022-12-29T09:16:10;99017.94;;;9.22;83.02
31483;BME280;18103;52.246;8.052;2022-12-29T09:18:35;99019.66;;;9.41;81.45
31483;BME280;18103;52.246;8.052;2022-12-29T09:21:03;99011.16;;;9.48;80.64
31483;BME280;18103;52.246;8.052;2022-12-29T09:23:29;99027.69;;;9.40;81.46
31483;BME280;18103;52.246;8.052;2022-12-29T09:25:55;99023.41;;;9.39;81.99
31483;BME280;18103;52.246;8.052;2022-12-29T09:28:21;99030.88;;;9.44;81.85
31483;BME280;18103;52.246;8.052;2022-12-29T09:30:46;99024.59;;;9.54;80.60
31483;BME280;18103;52.246;8.052;2022-12-29T09:33:12;99023.53;;;9.47;80.09
31483;BME280;18103;52.246;8.052;2022-12-29T09:35:41;99032.66;;;9.71;78.07
31483;BME280;18103;52.246;8.052;2022-12-29T09:38:07;99034.63;;;9.69;77.74
31483;BME280;18103;52.246;8.052;2022-12-29T09:40:33;99033.06;;;9.76;77.15
31483;BME280;18103;52.246;8.052;2022-12-29T09:45:51;99032.97;;;9.68;76.84
31483;BME280;18103;52.246;8.052;2022-12-29T09:48:23;99038.63;;;9.73;76.50
31483;BME280;18103;52.246;8.052;2022-12-29T09:50:56;99035.94;;;9.83;75.73
31483;BME280;18103;52.246;8.052;2022-12-29T09:53:28;99037.75;;;10.00;75.16
31483;BME280;18103;52.246;8.052;2022-12-29T09:55:57;99048.13;;;9.84;75.76
31483;BME280;18103;52.246;8.052;2022-12-29T10:01:07;99041.38;;;9.99;76.06
31483;BME280;18103;52.246;8.052;2022-12-29T10:03:49;99036.84;;;10.09;75.46
31483;BME280;18103;52.246;8.052;2022-12-29T10:06:17;99031.34;;;10.21;74.76
31483;BME280;18103;52.246;8.052;2022-12-29T10:09:22;99029.34;;;10.15;74.31
31483;BME280;18103;52.246;8.052;2022-12-29T10:15:11;99011.69;;;10.15;73.72
31483;BME280;18103;52.246;8.052;2022-12-29T10:24:04;99032.50;;;10.36;72.46
31483;BME280;18103;52.246;8.052;2022-12-29T10:26:43;99040.81;;;10.41;71.74
31483;BME280;18103;52.246;8.052;2022-12-29T10:29:22;99033.59;;;10.34;71.41
31483;BME280;18103;52.246;8.052;2022-12-29T10:32:13;99005.31;;;10.36;71.25
31483;BME280;18103;52.246;8.052;2022-12-29T10:34:46;99025.66;;;10.25;71.68
31483;BME280;18103;52.246;8.052;2022-12-29T10:40:18;99033.25;;;10.28;70.97
31483;BME280;18103;52.246;8.052;2022-12-29T10:42:49;99039.97;;;10.23;72.79
31483;BME280;18103;52.246;8.052;2022-12-29T10:45:16;99036.63;;;10.21;73.01
31483;BME280;18103;52.246;8.052;2022-12-29T10:47:56;99031.50;;;10.19;73.04
31483;BME280;18103;52.246;8.052;2022-12-29T10:50:24;99024.50;;;10.28;72.14
31483;BME280;18103;52.246;8.052;2022-12-29T10:52:51;99039.97;;;10.23;72.84
31483;BME280;18103;52.246;8.052;2022-12-29T10:55:22;99045.25;;;10.23;72.55
31483;BME280;18103;52.246;8.052;2022-12-29T10:57:50;99037.75;;;10.18;72.66
31483;BME280;18103;52.246;8.052;2022-12-29T11:00:20;99032.72;;;10.25;72.35
31483;BME280;18103;52.246;8.052;2022-12-29T11:05:53;99041.09;;;10.20;73.48
31483;BME280;18103;52.246;8.052;2022-12-29T11:08:25;99033.34;;;10.19;73.72
31483;BME280;18103;52.246;8.052;2022-12-29T11:11:03;99030.31;;;10.14;74.07
31483;BME280;18103;52.246;8.052;2022-12-29T11:13:31;99030.31;;;10.14;73.92
31483;BME280;18103;52.246;8.052;2022-12-29T11:15:57;99034.31;;;10.18;73.02
31483;BME280;18103;52.246;8.052;2022-12-29T11:18:40;99039.03;;;10.14;74.07
31483;BME280;18103;52.246;8.052;2022-12-29T11:21:31;99022.31;;;10.23;73.17
31483;BME280;18103;52.246;8.052;2022-12-29T11:24:03;99021.66;;;10.21;73.63
31483;BME280;18103;52.246;8.052;2022-12-29T11:26:36;99037.25;;;10.15;73.85
31483;BME280;18103;52.246;8.052;2022-12-29T11:34:08;99040.69;;;10.15;74.43
31483;BME280;18103;52.246;8.052;2022-12-29T11:36:34;99044.22;;;10.24;73.72
31483;BME280;18103;52.246;8.052;2022-12-29T11:39:01;99038.69;;;10.27;74.26
31483;BME280;18103;52.246;8.052;2022-12-29T11:41:31;99038.44;;;10.20;73.98
31483;BME280;18103;52.246;8.052;2022-12-29T11:44:04;99054.78;;;10.24;73.70
31483;BME280;18103;52.246;8.052;2022-12-29T11:46:32;99033.41;;;10.27;74.03
31483;BME280;18103;52.246;8.052;2022-12-29T11:48:59;99045.41;;;10.21;74.23
31483;BME280;18103;52.246;8.052;2022-12-29T11:51:39;99044.03;;;10.17;74.55
31483;BME280;18103;52.246;8.052;2022-12-29T11:54:16;99045.91;;;10.25;73.49
31483;BME280;18103;52.246;8.052;2022-12-29T11:56:43;99060.06;;;10.24;74.17
31483;BME280;18103;52.246;8.052;2022-12-29T11:59:42;99077.03;;;10.21;73.89
31483;BME280;18103;52.246;8.052;2022-12-29T12:05:12;99074.53;;;10.20;74.05
31483;BME280;18103;52.246;8.052;2022-12-29T12:07:40;99083.75;;;10.16;75.06
31483;BME280;18103;52.246;8.052;2022-12-29T12:10:19;99072.03;;;10.18;74.99
31483;BME280;18103;52.246;8.052;2022-12-29T12:13:19;99079.66;;;10.21;75.24
31483;BME280;18103;52.246;8.052;2022-12-29T12:15:43;99086.16;;;10.27;75.38
31483;BME280;18103;52.246;8.052;2022-12-29T12:20:52;99092.41;;;10.26;75.41
31483;BME280;18103;52.246;8.052;2022-12-29T12:23:28;99096.00;;;10.25;75.27
31483;BME280;18103;52.246;8.052;2022-12-29T12:26:01;99093.53;;;10.23;75.20
31483;BME280;18103;52.246;8.052;2022-12-29T12:28:37;99088.78;;;10.27;75.50
31483;BME280;18103;52.246;8.052;2022-12-29T12:31:15;99105.88;;;10.23;75.41
31483;BME280;18103;52.246;8.052;2022-12-29T12:33:46;99111.16;;;10.23;75.87
31483;BME280;18103;52.246;8.052;2022-12-29T12:48:04;99143.59;;;10.05;75.99
31483;BME280;18103;52.246;8.052;2022-12-29T12:50:55;99137.66;;;10.03;76.20
31483;BME280;18103;52.246;8.052;2022-12-29T12:59:56;99137.66;;;10.03;76.14
31483;BME280;18103;52.246;8.052;2022-12-29T13:05:41;99151.94;;;10.01;75.26
31483;BME280;18103;52.246;8.052;2022-12-29T13:18:52;99188.84;;;10.01;75.79
31483;BME280;18103;52.246;8.052;2022-12-29T13:21:46;99176.63;;;10.00;75.62
31483;BME280;18103;52.246;8.052;2022-12-29T13:24:23;99181.09;;;9.99;75.86
31483;BME280;18103;52.246;8.052;2022-12-29T13:26:57;99191.63;;;9.99;75.78
31483;BME280;18103;52.246;8.052;2022-12-29T13:29:36;99179.28;;;10.00;75.89
31483;BME280;18103;52.246;8.052;2022-12-29T13:37:25;99208.13;;;10.01;76.22
31483;BME280;18103;52.246;8.052;2022-12-29T13:40:00;99219.53;;;10.02;76.52
31483;BME280;18103;52.246;8.052;2022-12-29T13:42:27;99206.47;;;10.00;75.18
31483;BME280;18103;52.246;8.052;2022-12-29T13:45:06;99206.59;;;9.99;75.43
31483;BME280;18103;52.246;8.052;2022-12-29T13:47:42;99228.53;;;9.99;75.11
31483;BME280;18103;52.246;8.052;2022-12-29T13:50:17;99225.50;;;9.94;75.54
31483;BME280;18103;52.246;8.052;2022-12-29T13:58:07;99227.31;;;9.93;74.92
31483;BME280;18103;52.246;8.052;2022-12-29T14:00:52;99232.00;;;10.00;75.55
31483;BME280;18103;52.246;8.052;2022-12-29T14:03:49;99238.53;;;9.96;76.08
31483;BME280;18103;52.246;8.052;2022-12-29T14:06:23;99234.53;;;9.91;75.15
31483;BME280;18103;52.246;8.052;2022-12-29T14:11:23;99243.16;;;9.84;75.61
31483;BME280;18103;52.246;8.052;2022-12-29T14:13:53;99248.28;;;9.85;75.33
31483;BME280;18103;52.246;8.052;2022-12-29T14:16:31;99243.16;;;9.84;75.14
31483;BME280;18103;52.246;8.052;2022-12-29T14:19:04;99250.38;;;9.82;74.59
31483;BME280;18103;52.246;8.052;2022-12-29T14:21:31;99244.81;;;9.85;74.56
31483;BME280;18103;52.246;8.052;2022-12-29T14:26:57;99260.91;;;9.82;75.19
31483;BME280;18103;52.246;8.052;2022-12-29T14:31:51;99269.41;;;9.75;74.36
31483;BME280;18103;52.246;8.052;2022-12-29T14:39:31;99295.03;;;9.73;74.27
31483;BME280;18103;52.246;8.052;2022-12-29T14:47:31;99290.34;;;9.67;74.66
31483;BME280;18103;52.246;8.052;2022-12-29T14:55:43;99291.16;;;9.68;74.82
31483;BME280;18103;52.246;8.052;2022-12-29T14:58:18;99292.56;;;9.62;75.15
31483;BME280;18103;52.246;8.052;2022-12-29T15:00:45;99303.25;;;9.70;74.64
31483;BME280;18103;52.246;8.052;2022-12-29T15:05:53;99303.38;;;9.59;75.49
31483;BME280;18103;52.246;8.052;2022-12-29T15:08:23;99303.94;;;9.63;75.83
31483;BME280;18103;52.246;8.052;2022-12-29T15:10:58;99302.97;;;9.54;75.80
31483;BME280;18103;52.246;8.052;2022-12-29T15:13:36;99297.69;;;9.54;75.97
31483;BME280;18103;52.246;8.052;2022-12-29T15:16:13;99305.88;;;9.51;76.21
31483;BME280;18103;52.246;8.052;2022-12-29T15:18:45;99308.53;;;9.51;76.32
31483;BME280;18103;52.246;8.052;2022-12-29T15:21:12;99306.72;;;9.51;76.38
31483;BME280;18103;52.246;8.052;2022-12-29T15:23:42;99306.03;;;9.49;76.73
31483;BME280;18103;52.246;8.052;2022-12-29T15:26:10;99304.22;;;9.50;77.25
31483;BME280;18103;52.246;8.052;2022-12-29T15:28:41;99309.09;;;9.54;76.31
31483;BME280;18103;52.246;8.052;2022-12-29T15:31:27;99313.78;;;9.51;76.92
31483;BME280;18103;52.246;8.052;2022-12-29T15:34:00;99322.94;;;9.47;77.04
31483;BME280;18103;52.246;8.052;2022-12-29T15:36:34;99317.53;;;9.48;76.55
31483;BME280;18103;52.246;8.052;2022-12-29T15:39:20;99306.44;;;9.54;76.57